Time,TemperatureF,DewpointF,PressureIn,WindDirection,WindDirectionDegrees,WindSpeedMPH,WindSpeedGustMPH,Humidity,HourlyPrecipIn,Conditions,Clouds,dailyrainin,SoftwareType,DateUTC
2013-09-23 00:12:00,68.0,53.0,29.61,SSE,165,16.0,22.0,59,0.00,,,0.00,,2013-09-23 05:12:00,
2013-09-23 00:22:00,68.0,53.0,29.60,South,169,15.0,22.0,59,0.00,,,0.00,,2013-09-23 05:22:00,
2013-09-23 00:43:00,67.0,52.0,29.60,South,176,14.0,23.0,59,0.00,,,0.00,,2013-09-23 05:43:00,
2013-09-23 00:53:00,67.0,52.0,29.60,SSE,159,11.0,23.0,59,0.00,,,0.00,,2013-09-23 05:53:00,
2013-09-23 01:13:00,66.0,52.0,29.59,SSE,148,12.0,21.0,60,0.00,,,0.00,,2013-09-23 06:13:00,
2013-09-23 01:22:00,65.0,52.0,29.59,SSE,168,12.0,20.0,62,0.00,,,0.00,,2013-09-23 06:22:00,
2013-09-23 01:52:00,64.0,51.0,29.57,South,171,14.0,21.0,63,0.00,,,0.00,,2013-09-23 06:52:00,
2013-09-23 02:11:00,64.0,51.0,29.57,SSE,150,14.0,21.0,63,0.00,,,0.00,,2013-09-23 07:11:00,
2013-09-23 02:22:00,64.0,51.0,29.55,SE,134,14.0,22.0,63,0.00,,,0.00,,2013-09-23 07:22:00,
2013-09-23 02:52:00,63.0,50.0,29.54,SSE,165,9.0,20.0,63,0.00,,,0.00,,2013-09-23 07:52:00,
2013-09-23 03:11:00,63.0,50.0,29.54,SE,145,11.0,21.0,62,0.00,,,0.00,,2013-09-23 08:11:00,
2013-09-23 03:23:00,63.0,49.0,29.54,SSE,159,10.0,23.0,61,0.00,,,0.00,,2013-09-23 08:23:00,
2013-09-23 03:42:00,63.0,49.0,29.53,SSE,158,15.0,22.0,61,0.00,,,0.00,,2013-09-23 08:42:00,
2013-09-23 03:52:00,63.0,49.0,29.52,South,178,16.0,25.0,60,0.00,,,0.00,,2013-09-23 08:52:00,
2013-09-23 04:11:00,64.0,49.0,29.51,South,174,17.0,25.0,58,0.00,,,0.00,,2013-09-23 09:11:00,
2013-09-23 04:21:00,64.0,49.0,29.52,South,187,10.0,25.0,59,0.00,,,0.00,,2013-09-23 09:21:00,
2013-09-23 04:53:00,63.0,48.0,29.52,SSE,159,16.0,31.0,59,0.00,,,0.00,,2013-09-23 09:53:00,
2013-09-23 05:13:00,63.0,49.0,29.51,South,188,12.0,26.0,60,0.00,,,0.00,,2013-09-23 10:13:00,
2013-09-23 05:23:00,62.0,48.0,29.51,South,182,15.0,22.0,61,0.00,,,0.00,,2013-09-23 10:23:00,
2013-09-23 05:42:00,62.0,48.0,29.52,SSW,195,12.0,22.0,61,0.00,,,0.00,,2013-09-23 10:42:00,
2013-09-23 05:53:00,63.0,49.0,29.51,South,173,14.0,25.0,61,0.00,,,0.00,,2013-09-23 10:53:00,
2013-09-23 06:12:00,62.0,48.0,29.49,SSE,164,12.0,22.0,61,0.00,,,0.00,,2013-09-23 11:12:00,
2013-09-23 06:21:00,62.0,49.0,29.51,SSE,164,11.0,19.0,62,0.00,,,0.00,,2013-09-23 11:21:00,
2013-09-23 06:52:00,62.0,49.0,29.50,SSE,163,13.0,19.0,63,0.00,,,0.00,,2013-09-23 11:52:00,
2013-09-23 07:11:00,61.0,49.0,29.50,SSE,163,12.0,19.0,65,0.00,,,0.00,,2013-09-23 12:11:00,
2013-09-23 07:22:00,61.0,50.0,29.51,SSE,159,12.0,18.0,66,0.00,,,0.00,,2013-09-23 12:22:00,
2013-09-23 07:52:00,60.0,49.0,29.51,SSE,152,10.0,19.0,67,0.00,,,0.00,,2013-09-23 12:52:00,
2013-09-23 08:11:00,60.0,49.0,29.52,SE,136,14.0,22.0,68,0.00,,,0.00,,2013-09-23 13:11:00,
2013-09-23 08:21:00,59.0,49.0,29.54,SSE,148,15.0,20.0,69,0.00,,,0.00,,2013-09-23 13:21:00,
2013-09-23 08:42:00,59.0,50.0,29.54,SE,146,9.0,18.0,71,0.00,,,0.00,,2013-09-23 13:42:00,
2013-09-23 08:52:00,59.0,50.0,29.54,SSE,150,10.0,17.0,72,0.00,,,0.00,,2013-09-23 13:52:00,
2013-09-23 09:11:00,58.0,49.0,29.54,SE,137,8.0,19.0,73,0.00,,,0.00,,2013-09-23 14:11:00,
2013-09-23 09:22:00,58.0,50.0,29.54,SSE,153,9.0,18.0,74,0.00,,,0.00,,2013-09-23 14:22:00,
2013-09-23 09:42:00,60.0,51.0,29.54,SE,142,12.0,20.0,71,0.00,,,0.00,,2013-09-23 14:42:00,
2013-09-23 09:52:00,62.0,51.0,29.53,SE,139,14.0,22.0,67,0.00,,,0.00,,2013-09-23 14:52:00,
2013-09-23 10:11:00,64.0,51.0,29.54,SSE,162,15.0,22.0,63,0.00,,,0.00,,2013-09-23 15:11:00,
2013-09-23 10:21:00,64.0,51.0,29.53,SSE,153,14.0,25.0,63,0.00,,,0.00,,2013-09-23 15:21:00,
2013-09-23 10:43:00,63.0,51.0,29.53,South,176,11.0,22.0,64,0.00,,,0.00,,2013-09-23 15:43:00,
2013-09-23 10:54:00,63.0,51.0,29.53,South,169,10.0,18.0,65,0.00,,,0.00,,2013-09-23 15:54:00,
2013-09-23 11:12:00,63.0,51.0,29.52,SSE,149,11.0,17.0,66,0.00,,,0.00,,2013-09-23 16:12:00,
2013-09-23 11:23:00,63.0,51.0,29.52,SE,146,13.0,17.0,66,0.00,,,0.00,,2013-09-23 16:23:00,
2013-09-23 11:53:00,63.0,51.0,29.52,ESE,122,10.0,16.0,66,0.00,,,0.00,,2013-09-23 16:53:00,
2013-09-23 12:12:00,63.0,51.0,29.52,SE,136,8.0,18.0,65,0.00,,,0.00,,2013-09-23 17:12:00,
2013-09-23 12:24:00,63.0,51.0,29.53,ESE,117,10.0,14.0,64,0.00,,,0.00,,2013-09-23 17:24:00,
2013-09-23 12:42:00,64.0,52.0,29.50,ESE,112,6.0,12.0,65,0.00,,,0.00,,2013-09-23 17:42:00,
2013-09-23 12:52:00,64.0,51.0,29.50,ESE,107,7.0,11.0,63,0.00,,,0.00,,2013-09-23 17:52:00,
2013-09-23 13:12:00,64.0,51.0,29.50,East,94,5.0,9.0,62,0.00,,,0.00,,2013-09-23 18:12:00,
2013-09-23 13:21:00,64.0,52.0,29.50,East,82,4.0,6.0,65,0.00,,,0.00,,2013-09-23 18:21:00,
2013-09-23 13:52:00,62.0,56.0,29.52,NNW,342,1.0,6.0,80,0.05,,,0.05,,2013-09-23 18:52:00,
2013-09-23 14:12:00,60.0,55.0,29.52,North,355,1.0,4.0,85,0.14,,,0.14,,2013-09-23 19:12:00,
2013-09-23 14:53:00,61.0,59.0,29.52,NE,34,6.0,9.0,94,0.16,,,0.21,,2013-09-23 19:53:00,
2013-09-23 15:12:00,62.0,59.0,29.52,NE,42,2.0,10.0,91,0.07,,,0.21,,2013-09-23 20:12:00,
2013-09-23 15:22:00,63.0,60.0,29.53,NE,35,3.0,9.0,91,0.02,,,0.21,,2013-09-23 20:22:00,
2013-09-23 15:52:00,65.0,60.0,29.55,NNE,24,2.0,6.0,83,0.00,,,0.21,,2013-09-23 20:52:00,
2013-09-23 16:11:00,66.0,60.0,29.56,NNE,32,2.0,7.0,82,0.00,,,0.21,,2013-09-23 21:11:00,
2013-09-23 16:23:00,67.0,60.0,29.57,NE,44,2.0,8.0,77,0.00,,,0.21,,2013-09-23 21:23:00,
2013-09-23 16:44:00,65.0,56.0,29.59,West,277,17.0,28.0,73,0.00,,,0.21,,2013-09-23 21:44:00,
2013-09-23 16:54:00,63.0,56.0,29.60,NW,319,18.0,28.0,77,0.00,,,0.21,,2013-09-23 21:54:00,
2013-09-23 17:13:00,64.0,56.0,29.61,NW,317,14.0,25.0,75,0.00,,,0.21,,2013-09-23 22:13:00,
2013-09-23 17:23:00,64.0,57.0,29.62,NW,309,14.0,27.0,78,0.00,,,0.21,,2013-09-23 22:23:00,
2013-09-23 17:54:00,65.0,55.0,29.65,NNW,340,13.0,25.0,70,0.00,,,0.21,,2013-09-23 22:54:00,
2013-09-23 18:12:00,65.0,53.0,29.66,NNW,338,15.0,25.0,66,0.00,,,0.21,,2013-09-23 23:12:00,
2013-09-23 18:22:00,65.0,55.0,29.67,NNW,333,13.0,27.0,69,0.00,,,0.21,,2013-09-23 23:22:00,
2013-09-23 18:54:00,63.0,53.0,29.70,NNW,340,15.0,29.0,70,0.00,,,0.21,,2013-09-23 23:54:00,
2013-09-23 19:11:00,63.0,53.0,29.68,WNW,292,16.0,27.0,70,0.00,,,0.21,,2013-09-24 00:11:00,
2013-09-23 19:22:00,62.0,53.0,29.69,NW,323,17.0,30.0,72,0.00,,,0.21,,2013-09-24 00:22:00,
2013-09-23 19:42:00,61.0,53.0,29.70,NNW,336,14.0,24.0,75,0.00,,,0.21,,2013-09-24 00:42:00,
2013-09-23 19:52:00,59.0,52.0,29.71,NW,313,13.0,29.0,77,0.00,,,0.21,,2013-09-24 00:52:00,
2013-09-23 20:12:00,58.0,52.0,29.72,NW,326,16.0,29.0,79,0.00,,,0.21,,2013-09-24 01:12:00,
2013-09-23 20:22:00,58.0,52.0,29.73,NW,321,16.0,28.0,80,0.00,,,0.21,,2013-09-24 01:22:00,
2013-09-23 20:43:00,57.0,51.0,29.74,NW,315,13.0,26.0,81,0.00,,,0.21,,2013-09-24 01:43:00,
2013-09-23 20:52:00,57.0,52.0,29.75,NW,316,16.0,27.0,82,0.00,,,0.21,,2013-09-24 01:52:00,
2013-09-23 21:12:00,57.0,52.0,29.76,NNW,331,13.0,25.0,82,0.00,,,0.21,,2013-09-24 02:12:00,
2013-09-23 21:22:00,56.0,51.0,29.78,NW,305,14.0,22.0,83,0.00,,,0.21,,2013-09-24 02:22:00,
2013-09-23 21:42:00,56.0,51.0,29.80,NW,320,12.0,19.0,84,0.00,,,0.21,,2013-09-24 02:42:00,
2013-09-23 21:52:00,56.0,51.0,29.81,WNW,302,10.0,22.0,84,0.00,,,0.21,,2013-09-24 02:52:00,
2013-09-23 22:12:00,56.0,52.0,29.82,NNW,348,12.0,20.0,85,0.00,,,0.21,,2013-09-24 03:12:00,
2013-09-23 22:22:00,56.0,52.0,29.83,WNW,288,7.0,21.0,85,0.00,,,0.21,,2013-09-24 03:22:00,
2013-09-23 22:55:00,55.0,51.0,29.85,NW,304,10.0,19.0,85,0.00,,,0.21,,2013-09-24 03:55:00,
2013-09-23 23:14:00,55.0,51.0,29.85,NW,314,10.0,19.0,85,0.00,,,0.21,,2013-09-24 04:14:00,
2013-09-23 23:24:00,55.0,51.0,29.85,NW,313,8.0,19.0,85,0.00,,,0.21,,2013-09-24 04:24:00,
2013-09-23 23:44:00,54.0,50.0,29.86,NW,319,6.0,16.0,85,0.00,,,0.21,,2013-09-24 04:44:00,
2013-09-23 23:54:00,54.0,50.0,29.87,NW,321,7.0,15.0,85,0.00,,,0.21,,2013-09-24 04:54:00,